KMSV/MSV METAR and TAF weather

Enter ICAO airport designator
Station Type Date Time Source
KMSV METAR 2020/01/21 17:56 UTC NOAA

KMSV 211756Z AUTO 31010G15KT 10SM CLR M04/M14 A3036 RMK AO2 SLP306 60000 T10391144 11039 21139 58013 FZRANO


Station Type Date Time Source
KMSV Decoded METAR 2020/01/21 17:56 UTC NOAA

Monticello, Sullivan County International Airport, NY, United States (KMSV) 41-42N 074-48W
Jan 21, 2020 - 12:56 PM EST / 2020.01.21 1756 UTC
Wind: from the NW (310 degrees) at 12 MPH (10 KT) gusting to 17 MPH (15 KT):0
Visibility: 10 mile(s):0
Sky conditions: clear
Temperature: 25.0 F (-3.9 C)
Windchill: 14 F (-10 C):1
Dew Point: 6.1 F (-14.4 C)
Relative Humidity: 43%
Pressure (altimeter): 30.36 in. Hg (1028 hPa)
Pressure tendency: 0.04 inches (1.3 hPa) lower than three hours ago
ob: KMSV 211756Z AUTO 31010G15KT 10SM CLR M04/M14 A3036 RMK AO2 SLP306 60000 T10391144 11039 21139 58013 FZRANO
cycle: 18

Station Type Date Time Source
KMSV TAF UTC NOAA

Error!

Example: see airport list